createdAt,value
2022-10-21T00:01:45.574Z,100.00
2022-10-21T00:06:47.588Z,100.00
2022-10-21T00:11:49.284Z,100.00
2022-10-21T00:16:55.634Z,100.00
2022-10-21T00:22:00.200Z,100.00
2022-10-21T00:27:02.798Z,100.00
2022-10-21T00:32:05.183Z,100.00
2022-10-21T00:37:06.851Z,100.00
2022-10-21T00:42:17.825Z,100.00
2022-10-21T00:47:22.069Z,100.00
2022-10-21T00:52:24.325Z,100.00
2022-10-21T00:57:27.119Z,100.00
2022-10-21T01:02:31.310Z,100.00
2022-10-21T01:07:36.365Z,100.00
2022-10-21T01:13:16.773Z,100.00
2022-10-21T01:19:12.365Z,100.00
2022-10-21T01:24:24.544Z,100.00
2022-10-21T01:30:04.949Z,100.00
2022-10-21T01:35:17.746Z,100.00
2022-10-21T01:40:30.438Z,100.00
2022-10-21T01:45:44.439Z,100.00
2022-10-21T01:50:51.644Z,100.00
2022-10-21T01:55:58.308Z,100.00
2022-10-21T02:01:01.446Z,100.00
2022-10-21T02:06:08.850Z,100.00
2022-10-21T02:11:11.873Z,100.00
2022-10-21T02:16:22.077Z,100.00
2022-10-21T02:21:26.924Z,100.00
2022-10-21T02:26:30.760Z,100.00
2022-10-21T02:31:50.410Z,100.00
2022-10-21T02:36:56.676Z,100.00
2022-10-21T02:42:00.142Z,100.00
2022-10-21T02:47:04.441Z,100.00
2022-10-21T02:52:08.787Z,100.00
2022-10-21T02:57:12.759Z,100.00
2022-10-21T03:02:14.428Z,100.00
2022-10-21T03:07:18.623Z,100.00
2022-10-21T03:12:23.271Z,100.00
2022-10-21T03:17:25.496Z,100.00
2022-10-21T03:22:30.296Z,100.00
2022-10-21T03:27:36.083Z,100.00
2022-10-21T03:32:38.174Z,100.00
2022-10-21T03:37:40.015Z,100.00
2022-10-21T03:42:41.893Z,100.00
2022-10-21T03:47:43.664Z,100.00
2022-10-21T03:52:45.543Z,100.00
2022-10-21T03:57:50.510Z,100.00
2022-10-21T04:02:54.443Z,100.00
2022-10-21T04:07:56.117Z,100.00
2022-10-21T04:13:00.060Z,100.00
2022-10-21T04:18:03.826Z,100.00
2022-10-21T04:23:05.494Z,100.00
2022-10-21T04:28:09.402Z,100.00
2022-10-21T04:33:13.109Z,100.00
2022-10-21T04:38:17.791Z,100.00
2022-10-21T04:43:21.677Z,100.00
2022-10-21T04:48:29.156Z,100.00
2022-10-21T04:53:33.570Z,100.00
2022-10-21T04:58:37.599Z,100.00
2022-10-21T05:03:40.313Z,100.00
2022-10-21T05:08:44.412Z,100.00
2022-10-21T05:13:46.175Z,100.00
2022-10-21T05:18:52.797Z,100.00
2022-10-21T05:23:58.133Z,100.00
2022-10-21T05:29:02.221Z,100.00
2022-10-21T05:34:04.594Z,100.00
2022-10-21T05:39:11.344Z,100.00
2022-10-21T05:44:13.004Z,100.00
2022-10-21T05:49:14.707Z,100.00
2022-10-21T05:54:20.998Z,100.00
2022-10-21T05:59:22.746Z,100.00
2022-10-21T06:04:26.956Z,100.00
2022-10-21T06:09:29.712Z,100.00
2022-10-21T06:14:31.387Z,100.00
2022-10-21T06:19:37.850Z,100.00
2022-10-21T06:24:41.861Z,100.00
2022-10-21T06:29:44.439Z,100.00
2022-10-21T06:34:51.863Z,100.00
2022-10-21T06:39:57.837Z,100.00
2022-10-21T06:45:00.422Z,100.00
2022-10-21T06:50:03.617Z,100.00
2022-10-21T06:55:08.580Z,100.00
2022-10-21T07:00:11.475Z,100.00
2022-10-21T07:05:18.968Z,100.00
2022-10-21T07:10:20.637Z,100.00
2022-10-21T07:15:26.804Z,100.00
2022-10-21T07:20:28.472Z,100.00
2022-10-21T07:25:32.409Z,100.00
2022-10-21T07:30:44.709Z,100.00
2022-10-21T07:35:46.454Z,100.00
2022-10-21T07:40:50.404Z,100.00
2022-10-21T07:45:52.369Z,100.00
2022-10-21T07:51:06.221Z,100.00
2022-10-21T07:56:12.157Z,100.00
2022-10-21T08:01:18.625Z,100.00
2022-10-21T08:06:22.290Z,100.00
2022-10-21T08:11:28.750Z,100.00
2022-10-21T08:16:30.870Z,100.00
2022-10-21T08:21:37.571Z,100.00
2022-10-21T08:26:39.238Z,100.00
2022-10-21T08:31:48.496Z,100.00
2022-10-21T08:36:50.186Z,100.00
2022-10-21T08:41:57.734Z,100.00
2022-10-21T08:47:05.735Z,100.00
2022-10-21T08:52:14.331Z,100.00
2022-10-21T08:57:16.439Z,100.00
2022-10-21T09:02:29.394Z,100.00
2022-10-21T09:07:48.811Z,100.00
2022-10-21T09:13:10.482Z,100.00
2022-10-21T09:18:30.949Z,100.00
2022-10-21T09:23:42.752Z,100.00
2022-10-21T09:28:47.182Z,100.00
2022-10-21T09:33:56.599Z,100.00
2022-10-21T09:39:30.807Z,100.00
2022-10-21T09:44:32.506Z,100.00
2022-10-21T09:50:05.394Z,100.00
2022-10-21T09:55:01.892Z,100.00
2022-10-21T10:00:08.199Z,100.00
2022-10-21T10:05:37.429Z,100.00
2022-10-21T10:10:43.975Z,100.00
2022-10-21T10:15:51.778Z,100.00
2022-10-21T10:21:08.982Z,100.00
2022-10-21T10:26:21.738Z,100.00
2022-10-21T10:31:30.251Z,100.00
2022-10-21T10:36:46.003Z,100.00
2022-10-21T10:41:53.207Z,100.00
2022-10-21T10:46:56.925Z,100.00
2022-10-21T10:52:24.572Z,100.00
2022-10-21T10:57:40.315Z,100.00
2022-10-21T11:03:05.440Z,100.00
2022-10-21T11:08:14.432Z,100.00
2022-10-21T11:13:18.952Z,100.00
2022-10-21T11:18:33.991Z,100.00
2022-10-21T11:23:48.944Z,100.00
2022-10-21T11:29:06.217Z,100.00
2022-10-21T11:34:22.003Z,100.00
2022-10-21T11:39:34.800Z,97.43
2022-10-21T11:45:06.658Z,97.81
2022-10-21T11:50:30.700Z,99.02
2022-10-21T11:55:41.220Z,98.42
2022-10-21T12:00:58.709Z,97.61
2022-10-21T12:06:13.053Z,97.19
2022-10-21T12:11:24.741Z,97.32
2022-10-21T12:16:29.239Z,96.74
2022-10-21T12:21:36.453Z,96.50
2022-10-21T12:27:19.838Z,96.01
2022-10-21T12:32:39.643Z,95.88
2022-10-21T12:38:04.669Z,95.21
2022-10-21T12:43:17.800Z,95.23
2022-10-21T12:48:32.730Z,96.30
2022-10-21T12:53:42.859Z,95.44
2022-10-21T12:58:45.671Z,95.86
2022-10-21T13:03:55.378Z,95.95
2022-10-21T13:09:02.206Z,96.07
2022-10-21T13:14:59.562Z,94.40
2022-10-21T13:20:19.740Z,94.74
2022-10-21T13:25:27.873Z,95.32
2022-10-21T13:30:35.120Z,96.13
2022-10-21T13:35:50.374Z,95.74
2022-10-21T13:41:03.199Z,97.08
2022-10-21T13:46:18.853Z,96.69
2022-10-21T13:51:27.266Z,97.19
2022-10-21T13:56:34.210Z,97.94
2022-10-21T14:01:56.423Z,97.48
2022-10-21T14:07:06.308Z,97.61
2022-10-21T14:12:29.719Z,99.04
2022-10-21T14:17:35.655Z,99.74
2022-10-21T14:22:40.584Z,99.62
2022-10-21T14:27:46.839Z,100.00
2022-10-21T14:32:54.116Z,100.00
2022-10-21T14:38:03.697Z,100.00
2022-10-21T14:43:19.038Z,100.00
2022-10-21T14:48:38.004Z,100.00
2022-10-21T14:54:05.253Z,100.00
2022-10-21T14:59:18.998Z,100.00
2022-10-21T15:04:51.587Z,100.00
2022-10-21T15:09:57.649Z,100.00
2022-10-21T15:15:03.321Z,100.00
2022-10-21T15:20:15.781Z,100.00
2022-10-21T15:25:20.075Z,100.00
2022-10-21T15:30:22.486Z,100.00
2022-10-21T15:35:26.493Z,100.00
2022-10-21T15:40:32.499Z,100.00
2022-10-21T15:45:34.202Z,100.00
2022-10-21T15:50:41.750Z,100.00
2022-10-21T15:55:44.320Z,100.00
2022-10-21T16:00:50.965Z,100.00
2022-10-21T16:05:55.273Z,100.00
2022-10-21T16:10:59.914Z,100.00
2022-10-21T16:16:05.116Z,100.00
2022-10-21T16:21:11.622Z,100.00
2022-10-21T16:26:17.179Z,100.00
2022-10-21T16:31:21.670Z,100.00
2022-10-21T16:36:26.094Z,100.00
2022-10-21T16:41:36.961Z,100.00
2022-10-21T16:46:51.792Z,100.00
2022-10-21T16:51:53.920Z,100.00
2022-10-21T16:56:56.422Z,100.00
2022-10-21T17:01:59.332Z,100.00
2022-10-21T17:07:01.951Z,100.00
2022-10-21T17:12:04.694Z,100.00
2022-10-21T17:17:11.795Z,100.00
2022-10-21T17:22:16.785Z,100.00
2022-10-21T17:27:19.700Z,100.00
2022-10-21T17:32:24.917Z,100.00
2022-10-21T17:37:28.748Z,100.00
2022-10-21T17:42:33.562Z,100.00
2022-10-21T17:47:36.924Z,100.00
2022-10-21T17:52:39.357Z,100.00
2022-10-21T17:57:46.445Z,100.00
2022-10-21T18:02:50.489Z,100.00
2022-10-21T18:07:52.198Z,100.00
2022-10-21T18:12:53.926Z,100.00
2022-10-21T18:17:55.613Z,100.00
2022-10-21T18:23:00.279Z,100.00
2022-10-21T18:28:01.931Z,100.00
2022-10-21T18:33:03.999Z,100.00
2022-10-21T18:38:05.717Z,100.00
2022-10-21T18:43:09.806Z,100.00
2022-10-21T18:48:11.504Z,100.00
2022-10-21T18:53:15.447Z,100.00
2022-10-21T18:58:19.452Z,100.00
2022-10-21T19:03:23.806Z,100.00
2022-10-21T19:08:25.532Z,100.00
2022-10-21T19:13:29.978Z,100.00
2022-10-21T19:18:31.928Z,100.00
2022-10-21T19:23:33.870Z,100.00
2022-10-21T19:28:39.023Z,100.00
2022-10-21T19:33:41.372Z,100.00
2022-10-21T19:38:45.605Z,100.00
2022-10-21T19:43:52.229Z,100.00
2022-10-21T19:48:54.228Z,100.00
2022-10-21T19:53:58.981Z,100.00
2022-10-21T19:59:03.442Z,100.00
2022-10-21T20:04:05.353Z,100.00
2022-10-21T20:09:15.434Z,100.00
2022-10-21T20:14:24.193Z,100.00
2022-10-21T20:19:30.030Z,100.00
2022-10-21T20:24:34.260Z,100.00
2022-10-21T20:29:38.513Z,100.00
2022-10-21T20:34:40.283Z,100.00
2022-10-21T20:39:42.076Z,100.00
2022-10-21T20:44:49.180Z,100.00
2022-10-21T20:49:56.117Z,100.00
2022-10-21T20:54:57.789Z,100.00
2022-10-21T21:00:01.770Z,100.00
2022-10-21T21:05:07.055Z,100.00
2022-10-21T21:10:12.613Z,100.00
2022-10-21T21:15:14.574Z,100.00
2022-10-21T21:20:18.672Z,100.00
2022-10-21T21:25:20.317Z,100.00
2022-10-21T21:30:21.956Z,100.00
2022-10-21T21:35:23.644Z,100.00
2022-10-21T21:40:25.292Z,100.00
2022-10-21T21:45:27.061Z,100.00
2022-10-21T21:50:28.720Z,100.00
2022-10-21T21:55:33.585Z,100.00
2022-10-21T22:00:36.007Z,100.00
2022-10-21T22:05:39.973Z,100.00
2022-10-21T22:10:43.939Z,100.00
2022-10-21T22:15:48.707Z,100.00
2022-10-21T22:20:50.554Z,100.00
2022-10-21T22:25:55.383Z,100.00
2022-10-21T22:31:12.597Z,100.00
2022-10-21T22:36:16.497Z,100.00
2022-10-21T22:41:19.354Z,100.00
2022-10-21T22:46:41.190Z,100.00
2022-10-21T22:51:45.169Z,100.00
2022-10-21T22:56:49.158Z,100.00
2022-10-21T23:01:52.888Z,100.00
2022-10-21T23:06:54.567Z,100.00
2022-10-21T23:12:00.955Z,100.00
2022-10-21T23:17:03.231Z,100.00
2022-10-21T23:22:07.695Z,100.00
2022-10-21T23:27:09.350Z,100.00
2022-10-21T23:32:17.673Z,100.00
2022-10-21T23:37:21.750Z,100.00
2022-10-21T23:42:23.406Z,100.00
2022-10-21T23:47:27.473Z,100.00
2022-10-21T23:52:35.441Z,100.00
2022-10-21T23:57:39.613Z,100.00
